Time;durP1;ratioP1;P1;durP2;ratioP2;P2;SDS_P1;SDS_P2;PMS_P1;PMS_P2;Temp;Humidity;BMP_temperature;BMP_pressure;BME280_temperature;BME280_humidity;BME280_pressure;Samples;Min_cycle;Max_cycle;Signal;HPM_P1;HPM_P2
2021/05/22 00:01:17;;;;;;;;;;;;;;;9.14;66.96;97090.39;1717238;84;20125;-82
2021/05/22 00:03:44;;;;;;;;;;;;;;;9.13;66.14;97090.03;1717309;84;20196;-82
2021/05/22 00:06:10;;;;;;;;;;;;;;;9.13;67.38;97090.03;1717064;84;20157;-82
2021/05/22 00:08:36;;;;;;;;;;;;;;;9.15;67.30;97088.13;1717528;83;20168;-84
2021/05/22 00:11:02;;;;;;;;;;;;;;;9.17;67.33;97098.06;1697283;84;20169;-83
2021/05/22 00:13:30;;;;;;;;;;;;;;;9.21;67.05;97099.50;1695436;85;20186;-83
2021/05/22 00:16:03;;;;;;;;;;;;;;;9.24;67.33;97095.80;1695771;85;20495;-88
2021/05/22 00:18:51;;;;;;;;;;;;;;;9.27;67.98;97092.13;1696041;85;20150;-84
2021/05/22 00:21:24;;;;;;;;;;;;;;;9.29;67.84;97087.09;1812604;79;20169;-85
2021/05/22 00:23:55;;;;;;;;;;;;;;;9.30;67.59;97083.52;1786793;79;20147;-82
2021/05/22 00:26:25;;;;;;;;;;;;;;;9.32;67.55;97090.82;1730758;82;20176;-86
2021/05/22 00:28:52;;;;;;;;;;;;;;;9.34;68.82;97086.26;1762155;82;20236;-85
2021/05/22 00:31:26;;;;;;;;;;;;;;;9.36;67.34;97094.88;1762121;82;20553;-84
2021/05/22 00:34:00;;;;;;;;;;;;;;;9.37;67.16;97084.72;1762108;79;20173;-84
2021/05/22 00:36:30;;;;;;;;;;;;;;;9.35;66.45;97086.62;1750768;82;20161;-84
2021/05/22 00:39:02;;;;;;;;;;;;;;;9.36;66.54;97080.91;1762388;81;20191;-85
2021/05/22 00:41:34;;;;;;;;;;;;;;;9.34;67.38;97081.00;1762651;78;20094;-85
2021/05/22 00:44:01;;;;;;;;;;;;;;;9.35;66.33;97083.99;1737889;80;20179;-84
2021/05/22 00:46:28;;;;;;;;;;;;;;;9.35;67.44;97084.48;1679065;83;20145;-82
2021/05/22 00:48:55;;;;;;;;;;;;;;;9.36;67.36;97083.53;1724252;81;20165;-85
2021/05/22 00:51:28;;;;;;;;;;;;;;;9.34;66.76;97081.00;1724238;83;20164;-85
2021/05/22 00:53:57;;;;;;;;;;;;;;;9.33;66.28;97083.75;1724203;83;20163;-84
2021/05/22 00:56:42;;;;;;;;;;;;;;;9.29;65.62;97080.52;1724231;81;20163;-85
2021/05/22 00:59:19;;;;;;;;;;;;;;;9.22;66.68;97076.69;1753968;79;20113;-84
2021/05/22 01:01:57;;;;;;;;;;;;;;;9.15;67.10;97076.30;1762819;79;20180;-86
2021/05/22 01:04:32;;;;;;;;;;;;;;;9.09;68.17;97075.91;1731984;81;20094;-86
2021/05/22 01:09:55;;;;;;;;;;;;;;;8.94;67.04;97072.17;1658359;84;20534;-88
2021/05/22 01:15:59;;;;;;;;;;;;;;;8.74;68.40;97067.91;1596693;87;20136;-85
2021/05/22 01:18:46;;;;;;;;;;;;;;;8.65;68.25;97051.95;1596661;90;20143;-87
2021/05/22 01:21:20;;;;;;;;;;;;;;;8.59;68.53;97061.98;1595218;89;20260;-86
2021/05/22 01:24:06;;;;;;;;;;;;;;;8.50;69.16;97062.64;1596160;89;20168;-88
2021/05/22 01:26:43;;;;;;;;;;;;;;;8.44;69.28;97059.95;1567669;91;20123;-86
2021/05/22 01:29:20;;;;;;;;;;;;;;;8.38;69.32;97064.34;1567734;92;20159;-86
2021/05/22 01:31:53;;;;;;;;;;;;;;;8.33;69.34;97061.67;1547813;92;20170;-88
2021/05/22 01:34:32;;;;;;;;;;;;;;;8.28;69.24;97065.95;1546712;92;20167;-86
2021/05/22 01:37:06;;;;;;;;;;;;;;;8.23;70.49;97058.86;1543675;93;20183;-85
2021/05/22 01:39:34;;;;;;;;;;;;;;;8.18;68.84;97053.93;1543618;93;20205;-87
2021/05/22 01:42:08;;;;;;;;;;;;;;;8.16;67.74;97054.99;1480666;95;20179;-88
2021/05/22 01:44:46;;;;;;;;;;;;;;;8.10;69.90;97054.50;1508174;93;20206;-86
2021/05/22 01:47:20;;;;;;;;;;;;;;;8.06;68.36;97049.08;1500426;95;20167;-87
2021/05/22 01:49:49;;;;;;;;;;;;;;;8.07;68.99;97042.89;1493689;95;20176;-85
2021/05/22 01:52:22;;;;;;;;;;;;;;;8.07;69.41;97045.52;1508010;94;20281;-86
2021/05/22 01:54:50;;;;;;;;;;;;;;;8.10;69.23;97042.69;1465684;96;20190;-88
2021/05/22 01:57:21;;;;;;;;;;;;;;;8.11;71.09;97036.48;1507046;94;20171;-82
2021/05/22 01:59:53;;;;;;;;;;;;;;;8.13;68.90;97024.06;1506743;95;20231;-87
2021/05/22 02:02:22;;;;;;;;;;;;;;;8.18;68.86;97025.53;1507947;95;20166;-88
2021/05/22 02:04:56;;;;;;;;;;;;;;;8.20;69.31;97037.59;1565030;89;20188;-88
2021/05/22 02:07:26;;;;;;;;;;;;;;;8.21;68.86;97039.77;1575159;91;20245;-86
2021/05/22 02:09:55;;;;;;;;;;;;;;;8.22;69.18;97038.80;1550860;91;20239;-84
2021/05/22 02:12:26;;;;;;;;;;;;;;;8.25;68.78;97030.70;1574746;91;20348;-87
2021/05/22 02:14:58;;;;;;;;;;;;;;;8.30;69.44;97035.17;1554316;91;20186;-88
2021/05/22 02:17:33;;;;;;;;;;;;;;;8.32;69.42;97040.30;1574728;91;20245;-87
2021/05/22 02:20:10;;;;;;;;;;;;;;;8.33;68.93;97041.48;1594425;88;20608;-87
2021/05/22 02:22:42;;;;;;;;;;;;;;;8.33;68.61;97041.98;1631922;86;20149;-87
2021/05/22 02:25:17;;;;;;;;;;;;;;;8.36;68.81;97053.10;1610674;89;20177;-87
2021/05/22 02:27:55;;;;;;;;;;;;;;;8.38;68.69;97047.73;1633008;88;20180;-87
2021/05/22 02:30:30;;;;;;;;;;;;;;;8.39;68.03;97043.70;1613503;89;20102;-86
2021/05/22 02:33:03;;;;;;;;;;;;;;;8.39;68.57;97037.13;1567429;90;20249;-86
2021/05/22 02:35:40;;;;;;;;;;;;;;;8.42;68.63;97042.63;1564220;90;20132;-86
2021/05/22 02:38:17;;;;;;;;;;;;;;;8.38;68.07;97047.27;1580510;90;20157;-86
2021/05/22 02:40:46;;;;;;;;;;;;;;;8.29;69.02;97061.06;1526316;93;20175;-86
2021/05/22 02:43:21;;;;;;;;;;;;;;;8.28;69.11;97064.63;1587522;91;20156;-87
2021/05/22 02:45:56;;;;;;;;;;;;;;;8.29;69.00;97055.81;1580756;90;20133;-86
2021/05/22 02:48:28;;;;;;;;;;;;;;;8.28;68.18;97060.69;1576567;90;20214;-86
2021/05/22 02:51:09;;;;;;;;;;;;;;;8.26;69.04;97063.41;1573531;91;20115;-86
2021/05/22 02:53:46;;;;;;;;;;;;;;;8.25;67.79;97059.59;1579684;90;20160;-87
2021/05/22 02:56:18;;;;;;;;;;;;;;;8.25;68.55;97067.47;1581677;90;20224;-84
2021/05/22 02:58:59;;;;;;;;;;;;;;;8.23;69.28;97066.27;1546899;90;20167;-87
2021/05/22 03:01:37;;;;;;;;;;;;;;;8.22;68.92;97068.98;1541128;93;20222;-87
2021/05/22 03:04:16;;;;;;;;;;;;;;;8.16;69.04;97066.81;1524711;93;20189;-87
2021/05/22 03:06:46;;;;;;;;;;;;;;;8.16;69.30;97061.56;1525891;90;20181;-85
2021/05/22 03:09:17;;;;;;;;;;;;;;;8.17;70.39;97055.36;1591287;87;20209;-87
2021/05/22 03:11:55;;;;;;;;;;;;;;;8.12;71.43;97051.27;1668329;86;20170;-88
2021/05/22 03:14:25;;;;;;;;;;;;;;;8.13;69.52;97054.26;1646078;85;20131;-87
2021/05/22 03:16:57;;;;;;;;;;;;;;;8.17;70.57;97056.67;1607313;89;20160;-86
2021/05/22 03:19:35;;;;;;;;;;;;;;;8.20;70.43;97053.84;1562283;91;20218;-85
2021/05/22 03:22:04;;;;;;;;;;;;;;;8.24;68.92;97057.45;1554895;91;20155;-85
2021/05/22 03:24:34;;;;;;;;;;;;;;;8.26;70.13;97054.70;1554680;91;20159;-83
2021/05/22 03:27:04;;;;;;;;;;;;;;;8.26;70.17;97063.41;1570442;91;20199;-85
2021/05/22 03:29:33;;;;;;;;;;;;;;;8.27;69.89;97051.96;1534489;93;20214;-85
2021/05/22 03:32:05;;;;;;;;;;;;;;;8.30;70.94;97052.23;1595746;89;20151;-85
2021/05/22 03:34:36;;;;;;;;;;;;;;;8.30;70.66;97064.05;1614133;89;20181;-84
2021/05/22 03:37:09;;;;;;;;;;;;;;;8.35;70.91;97064.55;1613977;89;20145;-84
2021/05/22 03:39:53;;;;;;;;;;;;;;;8.37;71.06;97073.17;1641071;86;20169;-86
2021/05/22 03:42:34;;;;;;;;;;;;;;;8.46;70.06;97085.27;1655880;86;20154;-88
2021/05/22 03:45:10;;;;;;;;;;;;;;;8.51;71.73;97084.48;1633991;87;20187;-88
2021/05/22 03:48:06;;;;;;;;;;;;;;;8.59;69.49;97086.08;1633912;85;20174;-84
2021/05/22 03:50:49;;;;;;;;;;;;;;;8.77;70.25;97089.66;1637319;87;20139;-85
2021/05/22 03:53:21;;;;;;;;;;;;;;;9.02;69.88;97090.84;1612021;89;20225;-84
2021/05/22 03:55:49;;;;;;;;;;;;;;;9.27;69.62;97086.37;1606094;89;20182;-84
2021/05/22 03:58:37;;;;;;;;;;;;;;;9.48;69.69;97080.45;1623469;84;20154;-84
2021/05/22 04:01:05;;;;;;;;;;;;;;;9.75;69.15;97093.76;1643953;87;20158;-83
2021/05/22 04:03:37;;;;;;;;;;;;;;;9.97;68.52;97083.71;1644966;87;20143;-83
2021/05/22 04:06:07;;;;;;;;;;;;;;;10.23;67.95;97082.13;1649933;86;20185;-83
2021/05/22 04:08:37;;;;;;;;;;;;;;;10.44;67.05;97080.96;1671051;85;20170;-84
2021/05/22 04:11:05;;;;;;;;;;;;;;;10.67;66.51;97079.58;1691071;85;20166;-82
2021/05/22 04:13:34;;;;;;;;;;;;;;;10.76;66.23;97081.46;1691000;85;20207;-83
2021/05/22 04:16:02;;;;;;;;;;;;;;;10.86;65.83;97085.03;1687235;85;20131;-84
2021/05/22 04:18:35;;;;;;;;;;;;;;;10.94;65.66;97082.59;1667787;85;20173;-84
2021/05/22 04:21:04;;;;;;;;;;;;;;;11.06;65.61;97087.34;1667754;86;20251;-83
2021/05/22 04:23:34;;;;;;;;;;;;;;;11.19;64.45;97101.66;1679985;85;20163;-85
2021/05/22 04:26:01;;;;;;;;;;;;;;;11.25;65.03;97099.86;1694938;83;20170;-86
2021/05/22 04:28:28;;;;;;;;;;;;;;;11.42;64.85;97101.56;1695161;83;20153;-84
2021/05/22 04:30:54;;;;;;;;;;;;;;;11.63;65.18;97096.28;1695408;85;20154;-88
2021/05/22 04:33:20;;;;;;;;;;;;;;;11.84;64.26;97098.88;1695100;85;20182;-86
2021/05/22 04:35:46;;;;;;;;;;;;;;;12.23;65.07;97093.45;1699137;83;20145;-87
2021/05/22 04:38:14;;;;;;;;;;;;;;;12.72;63.27;97094.42;1716162;83;20188;-90
2021/05/22 04:40:41;;;;;;;;;;;;;;;13.25;63.75;97097.17;1704190;83;20165;-90
2021/05/22 04:43:07;;;;;;;;;;;;;;;13.55;61.57;97091.88;1716289;84;20171;-89
2021/05/22 04:45:34;;;;;;;;;;;;;;;13.87;61.69;97095.99;1714380;83;20176;-88
2021/05/22 04:48:00;;;;;;;;;;;;;;;14.26;59.63;97095.83;1716188;83;20164;-85
2021/05/22 04:50:29;;;;;;;;;;;;;;;14.44;58.40;97093.23;1747535;81;20142;-89
2021/05/22 04:52:55;;;;;;;;;;;;;;;14.53;57.07;97087.05;1729084;81;20137;-86
2021/05/22 04:55:21;;;;;;;;;;;;;;;14.55;56.41;97088.21;1728893;83;20164;-87
2021/05/22 04:57:47;;;;;;;;;;;;;;;14.57;60.76;97097.37;1729120;83;20485;-89
2021/05/22 05:00:14;;;;;;;;;;;;;;;14.59;60.72;97097.56;1745798;81;20463;-86
2021/05/22 05:02:41;;;;;;;;;;;;;;;14.60;57.00;97095.25;1729363;82;20481;-87
2021/05/22 05:05:07;;;;;;;;;;;;;;;14.67;58.57;97095.02;1729085;81;20489;-85
2021/05/22 05:07:34;;;;;;;;;;;;;;;14.74;56.67;97094.41;1732728;81;20156;-87
2021/05/22 05:10:00;;;;;;;;;;;;;;;14.95;58.83;97093.66;1728722;83;20171;-85
2021/05/22 05:12:28;;;;;;;;;;;;;;;14.91;57.92;97083.48;1732756;81;20179;-83
2021/05/22 05:14:54;;;;;;;;;;;;;;;14.72;57.61;97092.40;1736720;82;20242;-83
2021/05/22 05:17:20;;;;;;;;;;;;;;;14.78;56.89;97091.82;1728855;83;20156;-85
2021/05/22 05:19:46;;;;;;;;;;;;;;;14.75;56.85;97102.25;1729171;83;20164;-84
2021/05/22 05:22:12;;;;;;;;;;;;;;;14.86;58.22;97096.36;1728856;83;20144;-85
2021/05/22 05:24:38;;;;;;;;;;;;;;;15.01;55.09;97101.50;1742249;81;20170;-84
2021/05/22 05:27:04;;;;;;;;;;;;;;;14.94;57.02;97099.94;1753533;81;20169;-86
2021/05/22 05:29:30;;;;;;;;;;;;;;;14.88;53.90;97101.88;1754254;82;20202;-84
2021/05/22 05:31:57;;;;;;;;;;;;;;;15.05;55.27;97106.84;1754329;82;20221;-84
2021/05/22 05:34:23;;;;;;;;;;;;;;;15.33;56.14;97116.55;1743703;82;20457;-85
2021/05/22 05:36:49;;;;;;;;;;;;;;;15.37;54.52;97117.42;1728868;83;20141;-83
2021/05/22 05:39:15;;;;;;;;;;;;;;;15.42;55.65;97120.44;1732262;81;20215;-83
2021/05/22 05:41:41;;;;;;;;;;;;;;;15.38;53.78;97128.87;1754291;82;20213;-86
2021/05/22 05:44:07;;;;;;;;;;;;;;;15.13;55.22;97120.69;1746029;82;20216;-84
2021/05/22 05:46:33;;;;;;;;;;;;;;;14.95;55.22;97127.30;1749253;81;20264;-83
2021/05/22 05:49:00;;;;;;;;;;;;;;;14.98;55.13;97124.36;1756357;80;20544;-82
2021/05/22 05:51:26;;;;;;;;;;;;;;;14.89;55.33;97119.47;1767824;81;20139;-82
2021/05/22 05:53:52;;;;;;;;;;;;;;;14.77;55.95;97118.01;1767759;81;20164;-83
2021/05/22 05:56:18;;;;;;;;;;;;;;;14.64;56.08;97126.30;1765494;81;20227;-83
2021/05/22 05:58:44;;;;;;;;;;;;;;;14.65;56.42;97126.13;1761811;81;20241;-84
2021/05/22 06:01:13;;;;;;;;;;;;;;;14.59;55.66;97131.19;1744193;81;20533;-84
2021/05/22 06:03:38;;;;;;;;;;;;;;;14.52;55.43;97133.11;1767559;81;20199;-81
2021/05/22 06:06:05;;;;;;;;;;;;;;;14.44;55.46;97123.73;1767815;81;20160;-82
2021/05/22 06:08:34;;;;;;;;;;;;;;;14.42;55.92;97120.89;1761682;81;20162;-89
2021/05/22 06:11:02;;;;;;;;;;;;;;;14.45;56.42;97117.45;1742301;82;20142;-88
2021/05/22 06:13:31;;;;;;;;;;;;;;;14.34;56.14;97133.55;1742150;82;20174;-86
2021/05/22 06:16:02;;;;;;;;;;;;;;;14.46;56.48;97128.88;1742196;82;20154;-86
2021/05/22 06:18:28;;;;;;;;;;;;;;;14.66;55.93;97133.14;1742038;81;20154;-83
2021/05/22 06:20:55;;;;;;;;;;;;;;;14.78;55.77;97121.83;1743083;81;20178;-84
2021/05/22 06:23:21;;;;;;;;;;;;;;;14.84;56.10;97128.36;1742320;82;20158;-82
2021/05/22 06:25:49;;;;;;;;;;;;;;;14.72;55.89;97120.25;1742215;82;20166;-80
2021/05/22 06:28:15;;;;;;;;;;;;;;;14.55;56.33;97121.37;1742273;82;20166;-83
2021/05/22 06:30:41;;;;;;;;;;;;;;;14.50;56.65;97123.14;1744387;81;20447;-83
2021/05/22 06:33:07;;;;;;;;;;;;;;;14.40;56.99;97119.69;1720242;82;20166;-83
2021/05/22 06:35:33;;;;;;;;;;;;;;;14.42;57.27;97123.04;1742272;82;20182;-86
2021/05/22 06:37:59;;;;;;;;;;;;;;;14.46;57.44;97127.55;1747835;81;20146;-83
2021/05/22 06:40:25;;;;;;;;;;;;;;;14.34;57.59;97123.77;1742300;82;20162;-82
2021/05/22 06:42:51;;;;;;;;;;;;;;;14.28;57.96;97120.89;1742382;81;20162;-82
2021/05/22 06:45:20;;;;;;;;;;;;;;;14.25;58.29;97115.86;1744009;81;20204;-81
2021/05/22 06:47:48;;;;;;;;;;;;;;;14.21;58.83;97113.50;1743891;81;20146;-82
2021/05/22 06:50:14;;;;;;;;;;;;;;;14.18;59.22;97112.95;1744338;81;20161;-82
2021/05/22 06:52:40;;;;;;;;;;;;;;;14.34;59.18;97120.29;1742156;82;20157;-82
2021/05/22 06:55:07;;;;;;;;;;;;;;;14.46;58.94;97127.55;1742139;82;20463;-85
2021/05/22 06:57:34;;;;;;;;;;;;;;;14.70;58.96;97114.28;1742241;82;20188;-83
2021/05/22 07:00:00;;;;;;;;;;;;;;;14.97;58.56;97108.94;1743830;81;20161;-86
2021/05/22 07:02:26;;;;;;;;;;;;;;;15.32;58.66;97101.61;1752533;81;20151;-82
2021/05/22 07:04:52;;;;;;;;;;;;;;;15.70;57.72;97100.91;1767018;81;20147;-83
2021/05/22 07:07:18;;;;;;;;;;;;;;;15.91;56.28;97105.88;1747406;81;20175;-83
2021/05/22 07:09:44;;;;;;;;;;;;;;;15.83;56.61;97098.65;1743976;81;20206;-84
2021/05/22 07:12:10;;;;;;;;;;;;;;;15.88;56.53;97104.37;1746347;81;20192;-82
2021/05/22 07:14:37;;;;;;;;;;;;;;;16.02;56.62;97112.27;1767738;81;20168;-83
2021/05/22 07:17:03;;;;;;;;;;;;;;;16.15;56.32;97103.86;1767820;81;20149;-83
2021/05/22 07:19:29;;;;;;;;;;;;;;;16.05;56.20;97111.11;1767778;81;20464;-83
2021/05/22 07:21:56;;;;;;;;;;;;;;;16.11;55.13;97097.18;1767311;81;20524;-83
2021/05/22 07:24:24;;;;;;;;;;;;;;;16.29;55.52;97089.61;1718998;81;20205;-84
2021/05/22 07:26:51;;;;;;;;;;;;;;;16.49;55.54;97086.22;1742242;82;20178;-84
2021/05/22 07:29:18;;;;;;;;;;;;;;;16.79;55.27;97086.65;1742215;82;20483;-85
2021/05/22 07:31:44;;;;;;;;;;;;;;;16.99;53.90;97089.36;1742142;82;20507;-85
2021/05/22 07:34:11;;;;;;;;;;;;;;;17.31;54.57;97097.06;1763666;81;20180;-84
2021/05/22 07:36:39;;;;;;;;;;;;;;;17.68;53.07;97090.87;1750177;81;20146;-84
2021/05/22 07:39:09;;;;;;;;;;;;;;;17.89;52.06;97082.84;1742127;82;20174;-84
2021/05/22 07:41:35;;;;;;;;;;;;;;;18.18;52.50;97089.47;1742049;82;20162;-81
2021/05/22 07:44:01;;;;;;;;;;;;;;;18.44;50.88;97085.70;1763538;81;20168;-83
2021/05/22 07:46:27;;;;;;;;;;;;;;;18.58;51.12;97084.98;1767388;81;20148;-82
2021/05/22 07:48:53;;;;;;;;;;;;;;;18.75;51.03;97084.89;1767731;81;20156;-84
2021/05/22 07:51:19;;;;;;;;;;;;;;;18.97;49.84;97074.79;1748043;81;20130;-83
2021/05/22 07:53:46;;;;;;;;;;;;;;;19.04;48.32;97070.88;1731438;81;20178;-83
2021/05/22 07:56:12;;;;;;;;;;;;;;;19.08;47.61;97066.02;1741822;82;20158;-83
2021/05/22 07:58:38;;;;;;;;;;;;;;;19.17;47.74;97068.95;1725665;81;20189;-83
2021/05/22 08:01:04;;;;;;;;;;;;;;;19.28;47.50;97063.19;1727684;82;20174;-83
2021/05/22 08:03:30;;;;;;;;;;;;;;;19.30;46.07;97061.17;1727983;82;20150;-87
2021/05/22 08:05:56;;;;;;;;;;;;;;;19.48;45.86;97057.35;1735100;81;20169;-88
2021/05/22 08:08:22;;;;;;;;;;;;;;;19.64;47.21;97058.53;1716060;82;20150;-89
2021/05/22 08:10:49;;;;;;;;;;;;;;;19.79;44.44;97063.91;1731888;81;20553;-84
2021/05/22 08:13:15;;;;;;;;;;;;;;;19.83;45.72;97064.36;1713702;83;20505;-83
2021/05/22 08:15:41;;;;;;;;;;;;;;;20.07;46.21;97066.50;1714554;83;20510;-83
2021/05/22 08:18:07;;;;;;;;;;;;;;;20.00;43.88;97062.39;1713818;82;20513;-79
2021/05/22 08:20:34;;;;;;;;;;;;;;;19.70;44.70;97062.84;1713764;83;20215;-79
2021/05/22 08:23:00;;;;;;;;;;;;;;;19.41;44.93;97059.09;1728050;82;20158;-78
2021/05/22 08:25:27;;;;;;;;;;;;;;;19.33;45.88;97057.30;1746327;81;20170;-79
2021/05/22 08:27:53;;;;;;;;;;;;;;;19.42;45.26;97051.40;1720396;82;20165;-80
2021/05/22 08:30:20;;;;;;;;;;;;;;;19.27;45.87;97046.83;1710460;83;20136;-80
2021/05/22 08:32:47;;;;;;;;;;;;;;;19.28;46.25;97050.34;1709686;84;20156;-78
2021/05/22 08:35:14;;;;;;;;;;;;;;;19.40;46.65;97047.55;1709473;84;20189;-79
2021/05/22 08:37:40;;;;;;;;;;;;;;;19.70;45.66;97050.81;1737699;82;20157;-81
2021/05/22 08:40:08;;;;;;;;;;;;;;;19.80;44.94;97046.03;1743150;81;20178;-80
2021/05/22 08:42:34;;;;;;;;;;;;;;;19.91;43.87;97046.10;1738289;81;20161;-80
2021/05/22 08:45:10;;;;;;;;;;;;;;;20.05;45.43;97041.77;1726437;82;20182;-81
2021/05/22 08:47:37;;;;;;;;;;;;;;;20.26;45.24;97050.38;1746148;81;20177;-83
2021/05/22 08:50:05;;;;;;;;;;;;;;;20.33;43.81;97045.94;1748161;81;20189;-81
2021/05/22 08:52:32;;;;;;;;;;;;;;;20.41;43.74;97039.66;1753356;82;20534;-82
2021/05/22 08:54:58;;;;;;;;;;;;;;;20.40;42.55;97040.67;1754085;81;20337;-82
2021/05/22 08:57:24;;;;;;;;;;;;;;;20.52;44.08;97043.69;1754109;82;20165;-83
2021/05/22 08:59:51;;;;;;;;;;;;;;;20.78;42.38;97035.69;1751770;82;20178;-82
2021/05/22 09:02:20;;;;;;;;;;;;;;;20.86;42.20;97030.21;1695216;85;20146;-81
2021/05/22 09:05:14;;;;;;;;;;;;;;;20.94;40.26;97030.58;1694168;85;20186;-85
2021/05/22 09:07:44;;;;;;;;;;;;;;;20.77;39.01;97026.81;1695619;85;20138;-81
2021/05/22 09:10:13;;;;;;;;;;;;;;;20.85;40.10;97020.52;1701897;82;20171;-80
2021/05/22 09:12:42;;;;;;;;;;;;;;;21.22;41.93;97027.97;1724359;82;20132;-81
2021/05/22 09:15:11;;;;;;;;;;;;;;;21.37;36.16;97028.71;1724240;83;20152;-84
2021/05/22 09:17:38;;;;;;;;;;;;;;;21.50;37.70;97015.92;1724261;83;20136;-80
2021/05/22 09:20:16;;;;;;;;;;;;;;;21.58;36.43;97020.81;1726251;82;20172;-81
2021/05/22 09:22:46;;;;;;;;;;;;;;;21.65;36.19;97013.17;1724076;83;20192;-81
2021/05/22 09:25:12;;;;;;;;;;;;;;;21.92;36.17;97014.67;1702093;83;20230;-82
2021/05/22 09:27:41;;;;;;;;;;;;;;;22.33;37.19;97012.20;1724206;83;20227;-80
2021/05/22 09:30:15;;;;;;;;;;;;;;;22.66;36.47;97013.69;1747497;82;20134;-79
2021/05/22 09:32:41;;;;;;;;;;;;;;;22.86;38.83;97015.07;1724309;83;20136;-83
2021/05/22 09:35:09;;;;;;;;;;;;;;;23.03;38.53;97014.18;1724268;83;20167;-82
2021/05/22 09:37:39;;;;;;;;;;;;;;;23.32;36.24;97012.17;1724227;83;20190;-82
2021/05/22 09:40:06;;;;;;;;;;;;;;;23.58;31.58;97010.50;1665304;85;20512;-82
2021/05/22 09:42:32;;;;;;;;;;;;;;;23.80;33.41;97019.16;1705650;82;20176;-81
2021/05/22 09:45:01;;;;;;;;;;;;;;;24.05;33.91;97019.84;1724228;82;20155;-80
2021/05/22 09:47:27;;;;;;;;;;;;;;;24.31;33.06;97020.29;1739529;82;20198;-84
2021/05/22 09:49:53;;;;;;;;;;;;;;;24.51;31.11;97020.73;1749838;82;20482;-81
2021/05/22 09:52:19;;;;;;;;;;;;;;;24.61;30.42;97023.79;1738802;82;20181;-85
2021/05/22 09:54:51;;;;;;;;;;;;;;;24.53;29.48;97016.46;1714980;84;20496;-85
2021/05/22 09:57:21;;;;;;;;;;;;;;;24.46;29.32;97020.52;1738044;82;20166;-82
2021/05/22 10:00:11;;;;;;;;;;;;;;;24.51;32.30;97017.19;1735119;82;20217;-83
2021/05/22 10:02:48;;;;;;;;;;;;;;;24.53;32.04;97025.39;1727134;82;20168;-81
2021/05/22 10:05:25;;;;;;;;;;;;;;;24.55;31.63;97020.59;1716411;82;20185;-87
2021/05/22 10:07:54;;;;;;;;;;;;;;;24.47;26.99;97016.30;1717474;82;20462;-82
2021/05/22 10:10:21;;;;;;;;;;;;;;;24.63;27.71;97020.37;1720470;82;20477;-82
2021/05/22 10:12:47;;;;;;;;;;;;;;;24.74;30.83;97017.53;1719811;82;20472;-82
2021/05/22 10:15:16;;;;;;;;;;;;;;;24.83;28.57;97009.19;1728038;82;20501;-82
2021/05/22 10:17:43;;;;;;;;;;;;;;;24.84;28.62;96997.37;1709475;84;20236;-84
2021/05/22 10:20:11;;;;;;;;;;;;;;;24.90;26.13;96997.84;1720852;82;20169;-82
2021/05/22 10:22:37;;;;;;;;;;;;;;;25.04;28.51;96998.58;1722584;82;20517;-82
2021/05/22 10:25:09;;;;;;;;;;;;;;;25.22;29.61;96997.30;1735294;83;20226;-80
2021/05/22 10:27:34;;;;;;;;;;;;;;;25.29;30.39;96995.09;1725632;81;20234;-82
2021/05/22 10:30:03;;;;;;;;;;;;;;;25.37;27.79;96987.53;1712577;83;20536;-80
2021/05/22 10:32:31;;;;;;;;;;;;;;;25.49;31.07;96984.15;1708352;84;20176;-84
2021/05/22 10:34:57;;;;;;;;;;;;;;;25.40;28.45;96974.98;1718656;82;20146;-81
2021/05/22 10:37:40;;;;;;;;;;;;;;;25.51;27.66;96979.36;1724727;82;20172;-86
2021/05/22 10:40:09;;;;;;;;;;;;;;;25.68;28.06;96980.44;1714881;82;20270;-82
2021/05/22 10:42:39;;;;;;;;;;;;;;;25.86;29.66;96975.56;1719305;82;20158;-80
2021/05/22 10:45:25;;;;;;;;;;;;;;;25.92;28.26;96969.80;1722674;82;20141;-80
2021/05/22 10:47:51;;;;;;;;;;;;;;;25.85;28.48;96973.09;1715338;84;20149;-78
2021/05/22 10:50:41;;;;;;;;;;;;;;;25.73;27.04;96968.44;1706476;82;20170;-86
2021/05/22 10:53:32;;;;;;;;;;;;;;;25.68;29.43;96971.50;1754497;82;20150;-81
2021/05/22 10:56:16;;;;;;;;;;;;;;;25.53;28.39;96966.45;1729381;82;20223;-79
2021/05/22 10:59:06;;;;;;;;;;;;;;;25.41;29.90;96956.92;1749696;82;20197;-82
2021/05/22 11:01:37;;;;;;;;;;;;;;;25.28;28.39;96952.98;1711866;82;20501;-84
2021/05/22 11:04:15;;;;;;;;;;;;;;;25.15;26.09;96946.64;1716013;84;20156;-84
2021/05/22 11:06:56;;;;;;;;;;;;;;;25.07;29.97;96950.42;1746385;82;20524;-84
2021/05/22 11:09:31;;;;;;;;;;;;;;;24.95;28.28;96948.97;1707818;82;20556;-83
2021/05/22 11:12:00;;;;;;;;;;;;;;;24.74;28.53;96947.47;1723174;83;20212;-85
2021/05/22 11:14:36;;;;;;;;;;;;;;;24.23;26.98;96936.21;1724026;83;20575;-77
2021/05/22 11:17:33;;;;;;;;;;;;;;;24.13;29.49;96937.49;1725889;82;20164;-77
2021/05/22 11:19:59;;;;;;;;;;;;;;;24.07;29.36;96926.78;1723824;82;20196;-77
2021/05/22 11:22:30;;;;;;;;;;;;;;;24.21;30.21;96939.13;1738012;82;20225;-77
2021/05/22 11:25:05;;;;;;;;;;;;;;;24.32;29.71;96938.45;1736592;81;20251;-79
2021/05/22 11:27:56;;;;;;;;;;;;;;;24.50;31.32;96947.69;1747127;81;20221;-83
2021/05/22 11:30:29;;;;;;;;;;;;;;;24.51;25.82;96929.14;1767308;81;20453;-77
2021/05/22 11:33:02;;;;;;;;;;;;;;;24.53;29.01;96936.48;1757671;81;20526;-78
2021/05/22 11:35:34;;;;;;;;;;;;;;;24.64;27.78;96933.08;1751218;82;20218;-83
2021/05/22 11:38:23;;;;;;;;;;;;;;;24.70;29.44;96937.34;1752003;80;20217;-76
2021/05/22 11:40:56;;;;;;;;;;;;;;;24.61;29.93;96938.92;1752042;82;20165;-79
2021/05/22 11:43:33;;;;;;;;;;;;;;;24.63;26.91;96935.49;1751767;82;20150;-80
2021/05/22 11:46:12;;;;;;;;;;;;;;;24.54;29.02;96923.33;1707626;82;20164;-83
2021/05/22 11:48:43;;;;;;;;;;;;;;;24.20;27.37;96924.01;1752542;82;20190;-82
2021/05/22 11:51:26;;;;;;;;;;;;;;;23.86;27.32;96925.99;1754096;81;20170;-83
2021/05/22 11:53:56;;;;;;;;;;;;;;;23.53;27.20;96927.73;1754301;82;20154;-82
2021/05/22 11:56:22;;;;;;;;;;;;;;;23.30;27.14;96927.34;1752695;82;20192;-85
2021/05/22 11:58:51;;;;;;;;;;;;;;;23.31;29.27;96931.19;1751917;82;20451;-84
2021/05/22 12:01:35;;;;;;;;;;;;;;;23.47;29.49;96923.20;1754231;82;20824;-85
2021/05/22 12:04:06;;;;;;;;;;;;;;;23.63;28.57;96923.78;1753995;82;20150;-84
2021/05/22 12:06:39;;;;;;;;;;;;;;;23.83;30.12;96925.91;1753124;82;20169;-83
2021/05/22 12:09:14;;;;;;;;;;;;;;;24.08;29.69;96925.74;1753363;82;20487;-83
2021/05/22 12:12:01;;;;;;;;;;;;;;;24.29;29.89;96929.98;1753853;81;20248;-84
2021/05/22 12:14:42;;;;;;;;;;;;;;;24.55;31.03;96920.91;1753118;82;20185;-79
2021/05/22 12:17:10;;;;;;;;;;;;;;;24.80;27.77;96913.44;1753023;82;20169;-83
2021/05/22 12:19:38;;;;;;;;;;;;;;;24.96;28.32;96918.81;1753507;82;20146;-79
2021/05/22 12:22:04;;;;;;;;;;;;;;;25.13;28.97;96919.60;1732985;81;20152;-78
2021/05/22 12:24:31;;;;;;;;;;;;;;;25.18;27.41;96913.85;1724031;83;20184;-79
2021/05/22 12:26:58;;;;;;;;;;;;;;;25.30;28.94;96917.14;1724160;83;20155;-80
2021/05/22 12:29:29;;;;;;;;;;;;;;;25.48;28.43;96913.70;1723776;83;20180;-86
2021/05/22 12:32:00;;;;;;;;;;;;;;;25.62;31.54;96915.20;1735422;81;20173;-84
2021/05/22 12:34:35;;;;;;;;;;;;;;;25.70;29.66;96922.18;1750026;82;20201;-80
2021/05/22 12:37:09;;;;;;;;;;;;;;;25.83;29.34;96918.50;1727570;81;20175;-82
2021/05/22 12:39:39;;;;;;;;;;;;;;;25.86;28.84;96920.22;1725339;82;20185;-83
2021/05/22 12:42:14;;;;;;;;;;;;;;;25.97;27.25;96920.02;1694118;85;20252;-80
2021/05/22 12:44:40;;;;;;;;;;;;;;;26.08;29.05;96923.81;1700141;82;20229;-80
2021/05/22 12:47:07;;;;;;;;;;;;;;;26.17;27.74;96921.67;1748425;82;20202;-79
2021/05/22 12:49:33;;;;;;;;;;;;;;;26.24;25.58;96925.11;1750588;82;20225;-83
2021/05/22 12:52:08;;;;;;;;;;;;;;;26.13;27.96;96925.33;1759578;80;20476;-80
2021/05/22 12:54:37;;;;;;;;;;;;;;;25.55;26.33;96918.49;1764726;81;20492;-81
2021/05/22 12:57:18;;;;;;;;;;;;;;;24.97;28.25;96914.23;1762855;81;20236;-80
2021/05/22 12:59:57;;;;;;;;;;;;;;;24.77;26.36;96916.55;1759397;81;20208;-80
2021/05/22 13:02:28;;;;;;;;;;;;;;;24.68;28.93;96913.31;1764541;81;20476;-81
2021/05/22 13:04:58;;;;;;;;;;;;;;;24.55;28.59;96916.87;1764710;81;20235;-81
2021/05/22 13:07:28;;;;;;;;;;;;;;;24.40;28.10;96917.19;1761500;81;20152;-81
2021/05/22 13:10:01;;;;;;;;;;;;;;;24.39;28.68;96918.23;1764577;81;20220;-82
2021/05/22 13:12:30;;;;;;;;;;;;;;;24.45;28.99;96917.89;1763373;81;20576;-80
2021/05/22 13:15:01;;;;;;;;;;;;;;;24.46;29.18;96919.01;1764532;81;20219;-82